Briefing drone pour Vic-sur-cere

Rechercher une autre localisation

Conditions de vol :


Nous sommes le : Dimanche 24 octobre 2021
Il est 00:07 UTC (02:07 LT)

Lever de soleil : 05:50 UTC (07:50 LT)
Coucher de soleil : 17:16 UTC (19:16 LT)

Météo

L'essentiel des conditions de vol

VIGILANCE MÉTÉO FRANCE - Cantal (15)
Pas de vigilances particulieres
CARTE TEMSI
CARTES DES FRONTS
METAR de LFLW
LFLW 240000Z AUTO 09009KT CAVOK 04/M00 Q1024

Date d'émission: 24/10/2021
Heure d'émission: 00:00 UTC
Vent: 090° pour 9 KT (17 km/h)
Visibilité horizontale: > 10 km
Plafond : Plafond et visibilité OK (CAVOK)
Température: 4 °C
Point de rosée: 0 °C
Humidité: 75%
Pression (QNH): 1024 hPa
Prévision 24h pour Aurillac (9 km)
Vent : 96° pour 1 KT (5 km/h)
Temperature Maxi: 7 °C
Temperature Min: 7 °C
Humidité : 95%
Condition : Ciel dégagé



Warning: count(): Parameter must be an array or an object that implements Countable in /homepages/6/d509196549/htdocs/droneoxygene/briefing.php on line 743
WEBCAM POUR VIC-SUR-CERE

Réglementation

Voler en sécurité

CARTES AERONAUTIQUE 1/500.000
CARTES VAC (LFLW)
SUP AIP




Chargement des AIP...
NOTAM (VIC-SUR-CERE + Terrain à proximité / FIR )




Chargement des NOTAMS...
CONTACT PREFECTURE 15


Avertissement : Les données mises à disposition sont indicatives. Oxygène Drone ne pourra être tenu responsable de dégâts causés aux biens et aux personnes.